Time;durP1;ratioP1;P1;durP2;ratioP2;P2;SDS_P1;SDS_P2;PMS_P1;PMS_P2;Temp;Humidity;BMP_temperature;BMP_pressure;BME280_temperature;BME280_humidity;BME280_pressure;Samples;Min_cycle;Max_cycle;Signal;HPM_P1;HPM_P2
2022/11/24 00:01:16;;;;;;;6.40;2.30;;;;;;;9.44;nan;98973.03;6116681;23;20561;-85
2022/11/24 00:03:43;;;;;;;2.70;1.65;;;;;;;9.44;nan;98973.03;6115792;23;20406;-85
2022/11/24 00:06:11;;;;;;;2.50;2.10;;;;;;;9.45;nan;98973.88;6090742;23;20204;-85
2022/11/24 00:08:38;;;;;;;3.17;2.05;;;;;;;9.45;nan;98986.97;6092284;23;20211;-85
2022/11/24 00:11:09;;;;;;;3.13;2.25;;;;;;;9.45;nan;98982.59;6118250;23;20164;-85
2022/11/24 00:13:37;;;;;;;2.78;1.70;;;;;;;9.44;nan;98986.16;6115433;23;20203;-85
2022/11/24 00:16:10;;;;;;;2.85;1.52;;;;;;;9.43;nan;98989.72;6115920;23;20250;-85
2022/11/24 00:18:37;;;;;;;2.72;1.88;;;;;;;9.40;nan;98992.56;6089069;23;20214;-85
2022/11/24 00:21:03;;;;;;;2.65;2.42;;;;;;;9.38;nan;98989.19;6114884;23;20484;-85
2022/11/24 00:23:28;;;;;;;4.20;1.83;;;;;;;9.36;nan;98992.88;6115787;23;20225;-85
2022/11/24 00:25:54;;;;;;;6.83;2.07;;;;;;;9.34;nan;98992.13;6113896;23;20196;-85
2022/11/24 00:28:19;;;;;;;6.07;1.93;;;;;;;9.34;nan;98998.19;6114468;23;20568;-85
2022/11/24 00:30:44;;;;;;;5.33;2.40;;;;;;;9.37;nan;99003.25;6115393;23;20455;-85
2022/11/24 00:33:10;;;;;;;6.33;2.37;;;;;;;9.39;nan;99001.34;6116962;23;20177;-85
2022/11/24 00:35:35;;;;;;;6.00;2.00;;;;;;;9.42;nan;98992.44;6114768;23;20172;-86
2022/11/24 00:38:01;;;;;;;2.70;1.67;;;;;;;9.45;nan;98998.34;6116416;23;20209;-86
2022/11/24 00:40:26;;;;;;;2.73;1.90;;;;;;;9.49;nan;98999.78;6117963;23;20557;-86
2022/11/24 00:42:51;;;;;;;5.80;1.83;;;;;;;9.51;nan;99003.16;6088545;23;20190;-85
2022/11/24 00:45:17;;;;;;;2.50;1.70;;;;;;;9.52;nan;98991.69;6116282;23;20293;-85
2022/11/24 00:47:42;;;;;;;3.87;1.87;;;;;;;9.54;nan;99002.09;6117544;23;20257;-85
2022/11/24 00:50:08;;;;;;;5.43;2.00;;;;;;;9.58;nan;99010.56;6116594;23;20636;-85
2022/11/24 00:52:33;;;;;;;4.00;2.20;;;;;;;9.58;nan;99016.66;6114730;23;20181;-85
2022/11/24 00:54:59;;;;;;;3.97;1.83;;;;;;;9.61;nan;99018.22;6114992;23;20874;-86
2022/11/24 00:57:24;;;;;;;4.70;1.90;;;;;;;9.61;nan;99011.19;6114872;23;20170;-86
2022/11/24 00:59:50;;;;;;;4.40;2.03;;;;;;;9.62;nan;99017.31;6115601;23;20506;-85
2022/11/24 01:02:15;;;;;;;7.90;2.47;;;;;;;9.64;nan;99015.38;6114679;23;20309;-85
2022/11/24 01:04:40;;;;;;;5.30;1.97;;;;;;;9.65;nan;99022.34;6116828;23;20237;-85
2022/11/24 01:07:06;;;;;;;2.90;1.90;;;;;;;9.64;nan;99020.63;6115254;23;20684;-86
2022/11/24 01:09:31;;;;;;;4.13;1.90;;;;;;;9.63;nan;99025.03;6115062;23;20507;-85
2022/11/24 01:12:03;;;;;;;5.90;2.70;;;;;;;9.64;nan;99041.59;6117508;23;20208;-86
2022/11/24 01:14:30;;;;;;;5.35;2.10;;;;;;;9.61;nan;99034.78;6087129;23;20253;-86
2022/11/24 01:16:55;;;;;;;9.88;3.15;;;;;;;9.60;nan;99040.16;6113313;23;20651;-85
2022/11/24 01:19:21;;;;;;;4.63;2.53;;;;;;;9.58;nan;99032.38;6115388;23;20175;-86
2022/11/24 01:21:47;;;;;;;9.23;3.10;;;;;;;9.58;nan;99036.78;6114167;23;20335;-86
2022/11/24 01:24:13;;;;;;;14.17;2.30;;;;;;;9.59;nan;99048.97;6114461;23;20173;-86
2022/11/24 01:26:38;;;;;;;12.27;2.60;;;;;;;9.59;nan;99049.81;6111621;23;20203;-84
2022/11/24 01:29:04;;;;;;;6.43;1.73;;;;;;;9.64;nan;99046.84;6116390;23;20273;-83
2022/11/24 01:31:29;;;;;;;5.07;2.70;;;;;;;9.64;nan;99060.81;6114722;23;20202;-84
2022/11/24 01:33:55;;;;;;;7.68;2.65;;;;;;;9.65;nan;99051.19;6112405;23;20692;-84
2022/11/24 01:36:21;;;;;;;10.10;3.40;;;;;;;9.65;nan;99067.75;6113735;23;20254;-84
2022/11/24 01:38:47;;;;;;;5.05;1.90;;;;;;;9.62;nan;99073.19;6111875;23;20722;-85
2022/11/24 01:41:15;;;;;;;6.00;2.13;;;;;;;9.63;nan;99071.41;6115277;23;20479;-85
2022/11/24 01:43:43;;;;;;;9.30;1.77;;;;;;;9.61;nan;99066.25;6113364;23;20202;-86
2022/11/24 01:46:21;;;;;;;5.93;2.60;;;;;;;9.61;nan;99075.91;6088267;23;20709;-85
2022/11/24 01:49:10;;;;;;;4.65;1.85;;;;;;;9.55;nan;99066.69;6114360;23;20188;-86
2022/11/24 01:51:43;;;;;;;6.38;2.28;;;;;;;9.50;nan;99069.66;6113226;23;20176;-85
2022/11/24 01:54:20;;;;;;;3.58;2.13;;;;;;;9.48;nan;99068.06;6114329;23;20179;-85
2022/11/24 01:56:50;;;;;;;3.35;1.80;;;;;;;9.45;nan;99069.09;6113688;23;20177;-85
2022/11/24 01:59:19;;;;;;;2.67;1.85;;;;;;;9.42;nan;99069.28;6115204;23;20183;-86
2022/11/24 02:01:47;;;;;;;4.68;2.15;;;;;;;9.40;nan;99076.44;6039540;23;20711;-85
2022/11/24 02:04:17;;;;;;;8.27;2.17;;;;;;;9.37;nan;99071.41;6085244;23;20239;-86
2022/11/24 02:06:44;;;;;;;12.95;2.40;;;;;;;9.34;nan;99065.50;6084794;23;20200;-85
2022/11/24 02:09:13;;;;;;;6.85;2.20;;;;;;;9.32;nan;99065.63;6080346;23;20173;-86
2022/11/24 02:11:39;;;;;;;10.52;3.55;;;;;;;9.28;nan;99059.75;6058856;23;20183;-85
2022/11/24 02:14:07;;;;;;;7.45;2.72;;;;;;;9.28;nan;99062.34;6082092;23;20273;-85
2022/11/24 02:16:34;;;;;;;8.93;1.90;;;;;;;9.27;nan;99050.22;6065922;23;20216;-85
2022/11/24 02:19:02;;;;;;;8.38;2.03;;;;;;;9.24;nan;99042.56;6085660;23;20266;-85
2022/11/24 02:21:27;;;;;;;7.30;3.67;;;;;;;9.23;nan;99034.78;6083495;23;20184;-85
2022/11/24 02:24:24;;;;;;;10.10;2.13;;;;;;;9.23;nan;99034.78;6084040;23;20180;-85
2022/11/24 02:26:50;;;;;;;6.70;1.85;;;;;;;9.22;nan;99023.47;6062019;23;20206;-85
2022/11/24 02:29:18;;;;;;;7.30;2.30;;;;;;;9.21;nan;99021.81;6083901;23;20193;-85
2022/11/24 02:31:48;;;;;;;6.53;1.92;;;;;;;9.20;nan;99014.03;6085363;23;20675;-85
2022/11/24 02:34:14;;;;;;;3.53;2.05;;;;;;;9.20;nan;99019.28;6086098;23;20186;-85
2022/11/24 02:36:39;;;;;;;9.47;1.83;;;;;;;9.22;nan;99022.63;6084810;23;20167;-85
2022/11/24 02:39:10;;;;;;;5.00;2.20;;;;;;;9.25;nan;99019.81;6083988;23;20429;-86
2022/11/24 02:41:37;;;;;;;4.95;2.13;;;;;;;9.28;nan;99022.22;6084470;23;20183;-86
2022/11/24 02:44:02;;;;;;;8.77;2.60;;;;;;;9.29;nan;99032.59;6060946;23;20493;-86
2022/11/24 02:46:28;;;;;;;9.60;2.23;;;;;;;9.31;nan;99032.47;6084819;23;20265;-86
2022/11/24 02:48:53;;;;;;;6.13;2.40;;;;;;;9.29;nan;99030.00;6057024;23;20875;-85
2022/11/24 02:51:19;;;;;;;7.27;2.10;;;;;;;9.34;nan;99036.69;6060893;23;20175;-86
2022/11/24 02:53:44;;;;;;;10.60;2.43;;;;;;;9.35;nan;99041.00;6083690;23;20300;-85
2022/11/24 02:56:10;;;;;;;10.80;3.07;;;;;;;9.33;nan;99042.88;6084373;23;20387;-85
2022/11/24 02:58:35;;;;;;;3.70;2.40;;;;;;;9.36;nan;99040.03;6083658;23;20658;-86
2022/11/24 03:01:01;;;;;;;2.60;1.87;;;;;;;9.38;nan;99049.47;6084250;23;20175;-86
2022/11/24 03:03:27;;;;;;;6.83;2.40;;;;;;;9.38;nan;99054.72;6056644;23;20250;-86
2022/11/24 03:05:52;;;;;;;5.07;2.33;;;;;;;9.42;nan;99058.81;6084848;23;20444;-85
2022/11/24 03:08:18;;;;;;;8.10;2.43;;;;;;;9.44;nan;99056.94;6084916;23;20710;-85
2022/11/24 03:10:44;;;;;;;9.03;2.00;;;;;;;9.46;nan;99069.94;6085341;23;20187;-86
2022/11/24 03:13:09;;;;;;;6.43;2.93;;;;;;;9.43;nan;99078.84;6086487;23;20200;-86
2022/11/24 03:15:34;;;;;;;9.20;3.13;;;;;;;9.43;nan;99076.22;6088222;23;20188;-86
2022/11/24 03:18:00;;;;;;;5.13;2.20;;;;;;;9.41;nan;99098.25;6038571;23;20272;-86
2022/11/24 03:20:25;;;;;;;8.80;2.80;;;;;;;9.39;nan;99100.13;6084981;23;20271;-86
2022/11/24 03:22:51;;;;;;;11.50;2.10;;;;;;;9.36;nan;99109.03;6086803;23;20218;-86
2022/11/24 03:25:16;;;;;;;10.23;2.13;;;;;;;9.36;nan;99110.81;6086723;23;20188;-86
2022/11/24 03:27:42;;;;;;;8.23;2.10;;;;;;;9.35;nan;99112.59;6061582;23;20207;-85
2022/11/24 03:30:08;;;;;;;12.37;2.50;;;;;;;9.37;nan;99120.34;6087825;23;20187;-87
2022/11/24 03:32:33;;;;;;;13.32;2.20;;;;;;;9.39;nan;99111.44;6060320;23;20222;-86
2022/11/24 03:34:59;;;;;;;14.90;2.70;;;;;;;9.38;nan;99104.53;6062950;23;20263;-86
2022/11/24 03:37:24;;;;;;;7.77;2.40;;;;;;;9.39;nan;99111.44;6057540;23;20294;-86
2022/11/24 03:39:49;;;;;;;5.93;2.20;;;;;;;9.40;nan;99109.69;6085446;23;20508;-85
2022/11/24 03:42:15;;;;;;;7.20;1.60;;;;;;;9.39;nan;99111.44;6086616;23;20270;-85
2022/11/24 03:44:40;;;;;;;5.60;2.00;;;;;;;9.38;nan;99101.91;6085572;23;20180;-85
2022/11/24 03:47:06;;;;;;;7.33;2.77;;;;;;;9.39;nan;99113.22;6062017;23;20215;-83
2022/11/24 03:49:31;;;;;;;7.47;2.60;;;;;;;9.39;nan;99111.44;6088547;23;20618;-84
2022/11/24 03:51:57;;;;;;;5.43;1.90;;;;;;;9.41;nan;99109.56;6087027;23;20203;-83
2022/11/24 03:54:22;;;;;;;8.10;2.73;;;;;;;9.43;nan;99110.31;6086418;23;20211;-83
2022/11/24 03:56:48;;;;;;;8.63;3.10;;;;;;;9.44;nan;99108.53;6085777;23;20177;-84
2022/11/24 03:59:13;;;;;;;11.10;4.50;;;;;;;9.44;nan;99105.91;6086843;23;20170;-84
2022/11/24 04:01:39;;;;;;;8.37;2.73;;;;;;;9.49;nan;99111.69;6086989;23;20222;-84
2022/11/24 04:04:04;;;;;;;9.27;2.80;;;;;;;9.55;nan;99126.16;6085795;23;20447;-83
2022/11/24 04:06:29;;;;;;;9.73;2.50;;;;;;;9.59;nan;99127.63;6102484;23;20189;-83
2022/11/24 04:08:55;;;;;;;10.33;2.30;;;;;;;9.65;nan;99122.81;6093714;23;20545;-84
2022/11/24 04:14:05;;;;;;;8.73;2.15;;;;;;;9.73;nan;99119.69;6087176;23;20182;-85
2022/11/24 04:16:30;;;;;;;9.70;2.40;;;;;;;9.75;nan;99120.41;6085316;23;20171;-85
2022/11/24 04:18:55;;;;;;;7.27;1.90;;;;;;;9.77;nan;99120.28;6086166;23;20247;-84
2022/11/24 04:21:21;;;;;;;10.53;2.07;;;;;;;9.75;nan;99123.88;6086670;23;20179;-83
2022/11/24 04:23:46;;;;;;;4.90;2.20;;;;;;;9.75;nan;99123.03;6091704;23;20211;-85
2022/11/24 04:26:12;;;;;;;9.03;2.50;;;;;;;9.78;nan;99127.25;6088724;23;20207;-84
2022/11/24 04:28:38;;;;;;;13.10;4.38;;;;;;;9.77;nan;99122.91;6090731;23;20202;-84
2022/11/24 04:31:05;;;;;;;7.07;2.47;;;;;;;9.80;nan;99125.31;6088271;23;20638;-83
2022/11/24 04:33:31;;;;;;;17.27;3.88;;;;;;;9.83;nan;99118.09;6078619;23;20416;-85
2022/11/24 04:35:56;;;;;;;12.40;2.67;;;;;;;9.87;nan;99122.19;6057582;23;20223;-84
2022/11/24 04:38:22;;;;;;;16.40;2.40;;;;;;;9.88;nan;99123.88;6080487;23;20492;-84
2022/11/24 04:40:47;;;;;;;7.33;3.00;;;;;;;9.91;nan;99117.56;6081317;23;20189;-84
2022/11/24 04:43:13;;;;;;;14.73;3.70;;;;;;;9.94;nan;99127.88;6081821;23;20195;-84
2022/11/24 04:45:38;;;;;;;9.17;2.80;;;;;;;9.95;nan;99135.63;6081760;23;20299;-84
2022/11/24 04:48:04;;;;;;;9.50;4.73;;;;;;;10.01;nan;99138.75;6082236;23;20191;-85
2022/11/24 04:50:29;;;;;;;8.63;4.47;;;;;;;10.03;nan;99142.13;6088449;23;20192;-84
2022/11/24 04:52:55;;;;;;;12.03;3.27;;;;;;;10.08;nan;99155.78;6082694;23;20672;-84
2022/11/24 04:55:20;;;;;;;9.00;2.90;;;;;;;10.09;nan;99157.44;6085331;23;20176;-84
2022/11/24 04:57:46;;;;;;;8.60;2.90;;;;;;;10.12;nan;99157.22;6086783;23;20635;-84
2022/11/24 05:00:12;;;;;;;7.23;2.57;;;;;;;10.12;nan;99158.06;6059379;23;20442;-84
2022/11/24 05:02:38;;;;;;;9.63;3.40;;;;;;;10.11;nan;99159.03;6087637;23;20208;-85
2022/11/24 05:05:05;;;;;;;7.10;4.07;;;;;;;10.09;nan;99155.66;6061666;23;20179;-85
2022/11/24 05:07:30;;;;;;;9.32;3.38;;;;;;;10.07;nan;99161.94;6085793;23;20196;-87
2022/11/24 05:12:40;;;;;;;19.40;3.58;;;;;;;10.00;nan;99158.09;6058567;23;20203;-85
2022/11/24 05:15:06;;;;;;;8.73;2.70;;;;;;;9.97;nan;99164.38;6087164;23;20306;-85
2022/11/24 05:17:35;;;;;;;10.35;3.38;;;;;;;9.96;nan;99160.94;6084962;23;20547;-84
2022/11/24 05:20:01;;;;;;;6.18;3.53;;;;;;;9.93;nan;99155.03;6085025;23;20179;-85
2022/11/24 05:22:28;;;;;;;10.60;3.90;;;;;;;9.90;nan;99150.81;6086126;23;20653;-85
2022/11/24 05:24:53;;;;;;;9.00;3.25;;;;;;;9.89;nan;99136.03;6084244;23;20187;-84
2022/11/24 05:27:19;;;;;;;11.63;4.67;;;;;;;9.89;nan;99146.53;6084151;23;20292;-85
2022/11/24 05:29:44;;;;;;;14.43;3.20;;;;;;;9.90;nan;99142.97;6084523;23;20254;-85
2022/11/24 05:32:09;;;;;;;11.50;2.80;;;;;;;9.91;nan;99146.41;6083574;23;20537;-85
2022/11/24 05:34:35;;;;;;;11.07;3.20;;;;;;;9.90;nan;99145.59;6086814;23;20255;-85
2022/11/24 05:37:03;;;;;;;11.20;3.13;;;;;;;9.89;nan;99148.31;5232132;23;10000210;-84
2022/11/24 05:39:33;;;;;;;12.27;3.28;;;;;;;9.90;nan;99155.25;6085936;23;20484;-85
2022/11/24 05:42:39;;;;;;;13.15;4.05;;;;;;;9.93;nan;99150.63;6082767;23;20508;-84
2022/11/24 05:44:46;;;;;;;10.02;3.00;;;;;;;9.96;nan;99147.81;6082037;23;20355;-85
2022/11/24 05:47:11;;;;;;;11.73;3.60;;;;;;;10.01;nan;99157.13;6083222;23;20437;-83
2022/11/24 05:49:36;;;;;;;10.87;3.30;;;;;;;10.06;nan;99165.53;6085667;23;20173;-82
2022/11/24 05:52:02;;;;;;;9.50;3.37;;;;;;;10.07;nan;99164.56;6082428;23;20675;-84
2022/11/24 05:54:27;;;;;;;7.97;4.40;;;;;;;10.10;nan;99164.34;6085889;23;20183;-83
2022/11/24 05:56:53;;;;;;;10.67;3.33;;;;;;;10.12;nan;99165.94;6082768;23;20639;-82
2022/11/24 05:59:18;;;;;;;7.83;4.30;;;;;;;10.14;nan;99176.34;6084706;23;20175;-83
2022/11/24 06:01:43;;;;;;;12.00;4.03;;;;;;;10.15;nan;99170.13;6082823;23;20179;-83
2022/11/24 06:04:09;;;;;;;9.40;3.20;;;;;;;10.14;nan;99169.31;6083001;23;20191;-84
2022/11/24 06:06:35;;;;;;;6.90;2.50;;;;;;;10.16;nan;99175.28;6086238;23;20532;-84
2022/11/24 06:09:00;;;;;;;10.97;3.03;;;;;;;10.16;nan;99180.53;6110942;23;20210;-83
2022/11/24 06:11:26;;;;;;;13.88;3.58;;;;;;;10.15;nan;99178.88;6114682;23;20447;-84
2022/11/24 06:13:52;;;;;;;7.03;3.90;;;;;;;10.14;nan;99171.94;6115893;23;20252;-84
2022/11/24 06:16:17;;;;;;;16.50;3.67;;;;;;;10.16;nan;99177.91;6113792;23;20178;-84
2022/11/24 06:18:43;;;;;;;7.70;4.13;;;;;;;10.16;nan;99174.47;6115566;23;20565;-83
2022/11/24 06:21:08;;;;;;;11.63;3.37;;;;;;;10.16;nan;99184.97;6088736;23;20237;-83
2022/11/24 06:23:34;;;;;;;12.17;3.60;;;;;;;10.14;nan;99178.97;6112452;23;20242;-83
2022/11/24 06:26:00;;;;;;;11.70;3.20;;;;;;;10.14;nan;99181.59;6114034;23;20178;-84
2022/11/24 06:28:26;;;;;;;19.30;6.00;;;;;;;10.12;nan;99183.47;6115538;23;20205;-83
2022/11/24 06:30:52;;;;;;;10.45;4.45;;;;;;;10.12;nan;99186.94;6114814;23;20404;-84
2022/11/24 06:33:17;;;;;;;11.60;3.57;;;;;;;10.12;nan;99188.72;6091246;23;20637;-84
2022/11/24 06:35:42;;;;;;;11.00;3.60;;;;;;;10.11;nan;99193.13;6113157;23;20183;-85
2022/11/24 06:38:08;;;;;;;11.70;4.50;;;;;;;10.12;nan;99201.84;6087450;23;20400;-85
2022/11/24 06:40:33;;;;;;;19.43;7.37;;;;;;;10.11;nan;99190.50;6113456;23;20201;-85
2022/11/24 06:43:07;;;;;;;9.17;3.67;;;;;;;10.10;nan;99180.97;6115244;23;20233;-87
2022/11/24 06:45:32;;;;;;;17.13;4.35;;;;;;;10.08;nan;99185.47;6112380;23;20195;-85
2022/11/24 06:47:58;;;;;;;16.10;4.30;;;;;;;10.07;nan;99169.81;6088555;23;20203;-85
2022/11/24 06:50:23;;;;;;;16.43;4.37;;;;;;;10.05;nan;99176.97;6117110;23;20688;-85
2022/11/24 06:52:48;;;;;;;19.27;4.67;;;;;;;10.04;nan;99177.91;6114985;23;20193;-85
2022/11/24 06:55:14;;;;;;;22.77;6.03;;;;;;;10.04;nan;99188.41;6112371;23;20189;-85
2022/11/24 06:57:39;;;;;;;10.13;6.03;;;;;;;10.02;nan;99183.28;6115879;23;20171;-85
2022/11/24 07:00:06;;;;;;;14.13;6.50;;;;;;;10.03;nan;99189.34;6113855;23;20178;-85
2022/11/24 07:02:32;;;;;;;16.65;5.30;;;;;;;10.02;nan;99196.41;6115433;23;20233;-86
2022/11/24 07:04:58;;;;;;;10.27;4.20;;;;;;;10.02;nan;99196.41;6116239;23;20238;-85
2022/11/24 07:07:24;;;;;;;11.80;4.43;;;;;;;10.02;nan;99199.03;6113547;23;20207;-85
2022/11/24 07:09:49;;;;;;;11.50;3.97;;;;;;;10.03;nan;99215.59;6115637;23;20658;-85
2022/11/24 07:12:14;;;;;;;8.23;3.70;;;;;;;10.03;nan;99218.22;6115944;23;20222;-85
2022/11/24 07:14:40;;;;;;;10.37;3.67;;;;;;;10.06;nan;99221.47;6087061;23;20174;-85
2022/11/24 07:17:06;;;;;;;6.40;3.80;;;;;;;10.07;nan;99219.69;6117042;23;20515;-85
2022/11/24 07:19:31;;;;;;;10.70;3.37;;;;;;;10.08;nan;99219.59;6117268;23;20250;-85
2022/11/24 07:21:56;;;;;;;12.00;3.27;;;;;;;10.11;nan;99223.78;6114367;23;21078;-84
2022/11/24 07:24:22;;;;;;;8.23;3.30;;;;;;;10.11;nan;99224.63;6117111;23;20175;-84
2022/11/24 07:26:47;;;;;;;9.43;3.20;;;;;;;10.12;nan;99226.28;6114723;23;20207;-85
2022/11/24 07:29:13;;;;;;;14.17;5.07;;;;;;;10.14;nan;99239.31;6117570;23;20626;-84
2022/11/24 07:31:38;;;;;;;11.10;3.37;;;;;;;10.14;nan;99241.94;6112875;23;20238;-85
2022/11/24 07:34:04;;;;;;;11.90;4.00;;;;;;;10.15;nan;99254.97;6087846;23;20257;-85
2022/11/24 07:36:29;;;;;;;13.17;2.90;;;;;;;10.13;nan;99263.91;6116686;23;20201;-85
2022/11/24 07:38:54;;;;;;;13.33;3.43;;;;;;;10.13;nan;99256.03;6116858;23;20709;-85
2022/11/24 07:41:20;;;;;;;14.50;4.17;;;;;;;10.14;nan;99269.03;6115542;23;20190;-86
2022/11/24 07:43:46;;;;;;;11.23;3.10;;;;;;;10.14;nan;99266.41;6117346;23;20764;-85
2022/11/24 07:46:20;;;;;;;5.65;2.55;;;;;;;10.13;nan;99266.53;6107479;23;20201;-85
2022/11/24 07:48:49;;;;;;;7.32;2.35;;;;;;;10.10;nan;99275.44;6110574;23;20179;-85
2022/11/24 07:51:14;;;;;;;7.03;3.10;;;;;;;10.08;nan;99290.44;6111668;23;20186;-85
2022/11/24 07:53:40;;;;;;;8.13;2.97;;;;;;;10.09;nan;99293.91;6111120;23;20269;-85
2022/11/24 07:56:06;;;;;;;7.30;2.00;;;;;;;10.07;nan;99287.91;6112276;23;20724;-86
2022/11/24 07:58:34;;;;;;;9.70;3.35;;;;;;;10.07;nan;99291.41;6110397;23;20183;-85
2022/11/24 08:01:09;;;;;;;12.32;3.28;;;;;;;10.07;nan;99295.78;6112898;23;20670;-85
2022/11/24 08:03:35;;;;;;;13.40;4.75;;;;;;;10.07;nan;99299.28;6110809;23;20428;-85
2022/11/24 08:06:00;;;;;;;17.83;6.27;;;;;;;10.09;nan;99283.41;6112602;23;20563;-86
2022/11/24 08:08:25;;;;;;;5.57;3.37;;;;;;;10.09;nan;99294.75;6111605;23;20203;-84
2022/11/24 08:10:51;;;;;;;5.33;3.53;;;;;;;10.08;nan;99294.84;6111720;23;20458;-85
2022/11/24 08:13:17;;;;;;;12.13;4.13;;;;;;;10.11;nan;99297.28;6109928;23;20192;-85
2022/11/24 08:15:43;;;;;;;11.23;5.05;;;;;;;10.12;nan;99302.41;6110948;23;20175;-85
2022/11/24 08:18:08;;;;;;;10.20;4.00;;;;;;;10.13;nan;99309.34;6110176;23;20301;-85
2022/11/24 08:20:33;;;;;;;8.80;5.00;;;;;;;10.17;nan;99307.34;6111195;23;20174;-85
2022/11/24 08:23:00;;;;;;;9.30;3.70;;;;;;;10.23;nan;99306.94;6111007;23;20674;-84
2022/11/24 08:25:31;;;;;;;15.98;4.50;;;;;;;10.31;nan;99309.09;6111339;23;20237;-84
2022/11/24 08:28:00;;;;;;;10.40;5.30;;;;;;;10.35;nan;99310.56;6111383;23;20203;-85
2022/11/24 08:30:26;;;;;;;18.77;4.00;;;;;;;10.37;nan;99321.81;6109337;23;20184;-84
2022/11/24 08:32:51;;;;;;;9.10;4.77;;;;;;;10.40;nan;99335.56;6111492;23;20554;-85
2022/11/24 08:35:17;;;;;;;7.73;3.40;;;;;;;10.41;nan;99320.66;6110822;23;20181;-85
2022/11/24 08:37:43;;;;;;;3.20;2.00;;;;;;;10.39;nan;99333.88;6111633;23;20560;-85
2022/11/24 08:40:09;;;;;;;7.13;2.63;;;;;;;10.39;nan;99328.63;6110874;23;20463;-84
2022/11/24 08:42:34;;;;;;;5.05;2.35;;;;;;;10.37;nan;99335.78;6111852;23;20198;-84
2022/11/24 08:45:00;;;;;;;5.73;2.17;;;;;;;10.35;nan;99332.41;6111171;23;20257;-84
2022/11/24 08:47:25;;;;;;;6.40;3.10;;;;;;;10.32;nan;99335.25;6113431;23;20828;-84
2022/11/24 08:49:51;;;;;;;8.80;3.10;;;;;;;10.31;nan;99337.97;6110774;23;20581;-85
2022/11/24 08:52:16;;;;;;;8.10;2.10;;;;;;;10.32;nan;99335.25;6112286;23;20190;-84
2022/11/24 08:54:43;;;;;;;6.37;2.60;;;;;;;10.33;nan;99334.28;6110310;23;20536;-84
2022/11/24 08:57:18;;;;;;;11.73;5.10;;;;;;;10.34;nan;99336.00;6083312;23;20179;-83
2022/11/24 08:59:44;;;;;;;11.60;5.07;;;;;;;10.37;nan;99333.16;6110659;23;20820;-84
2022/11/24 09:02:11;;;;;;;11.02;3.78;;;;;;;10.43;nan;99349.44;6084237;23;20201;-84
2022/11/24 09:04:37;;;;;;;10.63;3.28;;;;;;;10.50;nan;99351.53;6083643;23;20182;-84
2022/11/24 09:07:03;;;;;;;11.30;2.97;;;;;;;10.77;nan;99348.81;6085886;23;20543;-84
2022/11/24 09:09:28;;;;;;;7.90;3.23;;;;;;;11.31;nan;99363.47;6110317;23;20211;-84
2022/11/24 09:11:53;;;;;;;11.50;4.60;;;;;;;11.53;nan;99368.09;6110567;23;20423;-84
2022/11/24 09:14:19;;;;;;;10.50;3.90;;;;;;;11.52;nan;99369.84;6110969;23;20202;-84
2022/11/24 09:16:44;;;;;;;13.40;3.87;;;;;;;11.46;nan;99377.34;6111025;23;20199;-84
2022/11/24 09:19:10;;;;;;;9.23;4.67;;;;;;;11.41;nan;99382.94;6113160;23;20653;-83
2022/11/24 09:21:39;;;;;;;9.13;3.40;;;;;;;11.35;nan;99375.47;6084531;23;20706;-84
2022/11/24 09:24:09;;;;;;;11.23;3.65;;;;;;;11.32;nan;99378.31;6086387;23;20510;-85
2022/11/24 09:26:37;;;;;;;7.53;3.60;;;;;;;11.26;nan;99376.97;6109836;23;20262;-84
2022/11/24 09:29:04;;;;;;;10.65;2.65;;;;;;;11.27;nan;99391.78;6112372;23;20184;-84
2022/11/24 09:31:33;;;;;;;8.82;3.60;;;;;;;11.37;nan;99388.50;6110097;23;20232;-84
2022/11/24 09:34:00;;;;;;;8.70;3.28;;;;;;;11.46;nan;99393.13;6111016;23;20182;-84
2022/11/24 09:36:26;;;;;;;7.65;3.30;;;;;;;11.52;nan;99401.41;6110925;23;20250;-84
2022/11/24 09:38:51;;;;;;;6.32;2.58;;;;;;;11.55;nan;99397.72;6060017;23;20188;-84
2022/11/24 09:41:17;;;;;;;10.33;3.00;;;;;;;11.57;nan;99406.34;6111885;23;20186;-84
2022/11/24 09:44:01;;;;;;;4.00;2.07;;;;;;;11.59;nan;99409.72;6112950;23;20531;-85
2022/11/24 10:11:02;;;;;;;4.78;2.67;;;;;;;13.25;nan;99426.41;6074440;23;20218;-93
2022/11/24 10:14:17;;;;;;;5.13;2.60;;;;;;;13.11;nan;99422.22;6082492;23;20189;-91
2022/11/24 10:17:40;;;;;;;13.75;3.22;;;;;;;12.99;nan;99420.53;6023661;23;20240;-94
2022/11/24 10:21:21;;;;;;;;;;;;;;;;;;;;;
2022/11/24 10:28:03;;;;;;;;;;;;;;;;;;;;;
2022/11/24 10:35:45;;;;;;;;;;;;;;;;;;;;;
2022/11/24 10:47:03;;;;;;;;;;;;;;;;;;;;;
2022/11/24 10:58:31;;;;;;;5.43;2.70;;;;;;;12.26;nan;99424.25;5747121;24;20345;-93
2022/11/24 11:05:54;;;;;;;;;;;;;;;;;;;;;
2022/11/24 11:21:59;;;;;;;11.18;2.58;;;;;;;13.02;nan;99429.03;5713101;25;20192;-95
2022/11/24 11:50:56;;;;;;;11.93;2.47;;;;;;;12.89;nan;99425.66;6064264;23;20222;-89
2022/11/24 11:58:20;;;;;;;6.82;3.20;;;;;;;13.17;nan;99445.47;5957152;24;20210;-90
2022/11/24 12:01:11;;;;;;;11.50;4.55;;;;;;;13.31;nan;99447.06;5892364;24;20228;-88
2022/11/24 12:03:44;;;;;;;10.23;2.47;;;;;;;13.34;nan;99448.63;5892393;24;20173;-89
2022/11/24 12:06:25;;;;;;;;;;;;;;;;;;;;;
2022/11/24 12:09:03;;;;;;;6.93;1.73;;;;;;;13.36;nan;99439.66;6071898;23;20632;-91
2022/11/24 12:12:00;;;;;;;;;;;;;;;;;;;;;
2022/11/24 12:14:55;;;;;;;;;;;;;;;;;;;;;
2022/11/24 12:17:49;;;;;;;6.53;4.47;;;;;;;13.34;nan;99444.22;6069348;23;20178;-89
2022/11/24 12:20:59;;;;;;;9.00;3.95;;;;;;;13.35;nan;99440.63;6074769;23;20180;-90
2022/11/24 12:23:47;;;;;;;7.03;2.10;;;;;;;13.40;nan;99433.19;6071499;23;20180;-89
2022/11/24 12:26:19;;;;;;;11.02;2.65;;;;;;;13.39;nan;99443.84;6043420;23;20198;-89
2022/11/24 12:29:20;;;;;;;5.03;2.53;;;;;;;13.35;nan;99440.63;6041906;23;20234;-89
2022/11/24 12:32:04;;;;;;;4.43;2.35;;;;;;;13.29;nan;99451.66;6039773;23;20920;-88
2022/11/24 12:35:07;;;;;;;5.00;2.20;;;;;;;13.26;nan;99436.06;6023726;23;20237;-95
2022/11/24 12:38:52;;;;;;;;;;;;;;;;;;;;;
2022/11/24 12:42:00;;;;;;;5.50;2.70;;;;;;;13.27;nan;99425.38;5979851;23;20199;-94
2022/11/24 13:09:30;;;;;;;;;;;;;;;;;;;;;
2022/11/24 13:12:24;;;;;;;7.63;3.63;;;;;;;13.52;nan;99398.88;5858239;24;20340;-93
2022/11/24 13:39:46;;;;;;;3.75;1.80;;;;;;;13.51;nan;99408.59;6101699;23;20221;-85
2022/11/24 13:42:12;;;;;;;3.92;1.60;;;;;;;13.54;nan;99407.50;6087694;23;20489;-86
2022/11/24 13:44:49;;;;;;;7.37;1.73;;;;;;;13.53;nan;99405.81;6082637;23;20563;-86
2022/11/24 13:47:41;;;;;;;2.60;1.73;;;;;;;13.54;nan;99407.50;6067824;23;21069;-86
2022/11/24 13:50:19;;;;;;;5.30;2.00;;;;;;;13.53;nan;99411.97;6057336;23;20573;-86
2022/11/24 13:52:51;;;;;;;2.50;1.60;;;;;;;13.53;nan;99417.25;6074346;23;20647;-83
2022/11/24 13:55:21;;;;;;;6.28;2.25;;;;;;;13.52;nan;99404.97;6076453;23;20203;-87
2022/11/24 13:57:53;;;;;;;2.67;1.88;;;;;;;13.51;nan;99408.59;6084915;23;20172;-85
2022/11/24 14:00:31;;;;;;;3.50;1.50;;;;;;;13.45;nan;99411.72;6086691;23;20216;-87
2022/11/24 14:03:00;;;;;;;3.22;1.85;;;;;;;13.42;nan;99420.72;6056868;23;20177;-87
2022/11/24 14:05:45;;;;;;;5.45;2.00;;;;;;;13.39;nan;99417.47;6056766;23;20196;-86
2022/11/24 14:08:19;;;;;;;5.15;2.17;;;;;;;13.34;nan;99423.13;6055796;23;20243;-87
2022/11/24 14:10:45;;;;;;;7.57;2.38;;;;;;;13.23;nan;99417.78;6056463;23;20264;-87
2022/11/24 14:13:20;;;;;;;5.07;2.47;;;;;;;13.12;nan;99412.50;6058138;23;20198;-84
2022/11/24 14:16:03;;;;;;;8.20;2.33;;;;;;;13.02;nan;99409.75;6057541;23;20351;-85
2022/11/24 14:18:30;;;;;;;6.45;2.65;;;;;;;12.92;nan;99401.69;6055617;23;20189;-85
2022/11/24 14:21:00;;;;;;;3.08;1.65;;;;;;;12.83;nan;99407.69;6058714;23;20201;-87
2022/11/24 14:23:26;;;;;;;7.43;1.80;;;;;;;12.78;nan;99415.94;6056094;23;20256;-87
2022/11/24 14:25:52;;;;;;;5.75;2.20;;;;;;;12.73;nan;99401.44;6055882;23;20634;-87
2022/11/24 14:28:24;;;;;;;4.70;2.30;;;;;;;12.68;nan;99403.56;6056117;23;20220;-84
2022/11/24 14:30:50;;;;;;;3.20;1.75;;;;;;;12.62;nan;99399.59;6057804;23;20181;-87
2022/11/24 14:33:18;;;;;;;5.30;2.87;;;;;;;12.56;nan;99402.72;6056895;23;20247;-87
2022/11/24 14:35:49;;;;;;;5.03;2.17;;;;;;;12.53;nan;99397.66;6059400;23;20504;-85
2022/11/24 14:38:15;;;;;;;5.43;2.92;;;;;;;12.50;nan;99400.50;6057701;23;20279;-84
2022/11/24 14:40:53;;;;;;;5.47;3.50;;;;;;;12.50;nan;99404.00;6054438;23;20663;-87
2022/11/24 14:43:24;;;;;;;11.25;4.38;;;;;;;12.49;nan;99399.69;6058313;23;20191;-87
2022/11/24 14:45:53;;;;;;;9.68;3.47;;;;;;;12.49;nan;99389.13;6054664;23;20208;-87
2022/11/24 14:48:25;;;;;;;4.78;3.40;;;;;;;12.49;nan;99383.03;6053451;23;20281;-86
2022/11/24 14:50:50;;;;;;;5.15;2.65;;;;;;;12.49;nan;99388.31;6054676;23;20188;-88